createdAt,value
2022-12-03T00:01:25.083Z,80.75
2022-12-03T00:03:52.649Z,80.34
2022-12-03T00:06:20.329Z,81.43
2022-12-03T00:08:47.926Z,80.69
2022-12-03T00:11:15.450Z,80.25
2022-12-03T00:13:42.942Z,81.02
2022-12-03T00:16:10.507Z,80.64
2022-12-03T00:18:38.122Z,80.69
2022-12-03T00:21:05.707Z,80.73
2022-12-03T00:23:35.962Z,80.53
2022-12-03T00:26:07.781Z,79.65
2022-12-03T00:28:35.288Z,80.07
2022-12-03T00:31:02.873Z,80.05
2022-12-03T00:33:30.320Z,80.29
2022-12-03T00:35:57.712Z,80.82
2022-12-03T00:38:25.133Z,79.96
2022-12-03T00:40:52.499Z,78.76
2022-12-03T00:43:19.883Z,79.74
2022-12-03T00:45:47.305Z,79.90
2022-12-03T00:48:14.681Z,79.18
2022-12-03T00:50:42.315Z,79.67
2022-12-03T00:53:09.681Z,80.42
2022-12-03T00:55:41.739Z,80.17
2022-12-03T00:58:09.899Z,79.39
2022-12-03T01:00:37.747Z,78.65
2022-12-03T01:03:05.896Z,79.33
2022-12-03T01:05:33.303Z,79.79
2022-12-03T01:08:00.943Z,79.94
2022-12-03T01:10:28.499Z,79.67
2022-12-03T01:12:56.089Z,78.87
2022-12-03T01:15:23.574Z,79.64
2022-12-03T01:17:50.893Z,80.06
2022-12-03T01:20:18.389Z,78.63
2022-12-03T01:22:45.701Z,79.02
2022-12-03T01:25:13.045Z,79.83
2022-12-03T01:27:40.368Z,79.36
2022-12-03T01:30:08.938Z,80.02
2022-12-03T01:32:36.324Z,79.00
2022-12-03T01:35:03.764Z,79.15
2022-12-03T01:37:31.354Z,79.35
2022-12-03T01:39:58.626Z,79.72
2022-12-03T01:42:29.210Z,79.34
2022-12-03T01:44:58.048Z,79.39
2022-12-03T01:47:31.569Z,79.34
2022-12-03T01:50:13.993Z,79.17
2022-12-03T01:52:41.846Z,79.32
2022-12-03T01:55:17.886Z,79.18
2022-12-03T01:57:48.812Z,79.24
2022-12-03T02:00:21.643Z,79.63
2022-12-03T02:02:54.999Z,79.13
2022-12-03T02:05:27.429Z,79.17
2022-12-03T02:07:55.402Z,79.29
2022-12-03T02:10:31.454Z,79.52
2022-12-03T02:13:02.052Z,79.23
2022-12-03T02:15:29.549Z,79.65
2022-12-03T02:17:57.675Z,79.31
2022-12-03T02:20:24.932Z,78.55
2022-12-03T02:23:08.862Z,78.82
2022-12-03T02:25:36.966Z,78.55
2022-12-03T02:28:04.975Z,78.68
2022-12-03T02:30:32.716Z,79.30
2022-12-03T02:33:00.150Z,79.16
2022-12-03T02:35:31.505Z,78.96
2022-12-03T02:38:19.062Z,79.24
2022-12-03T02:40:48.028Z,79.54
2022-12-03T02:43:16.555Z,78.70
2022-12-03T02:45:46.943Z,78.99
2022-12-03T02:48:23.998Z,79.21
2022-12-03T02:50:56.263Z,79.18
2022-12-03T02:53:27.400Z,78.29
2022-12-03T02:55:56.375Z,78.45
2022-12-03T02:58:25.160Z,79.05
2022-12-03T03:00:53.318Z,79.41
2022-12-03T03:03:21.374Z,78.82
2022-12-03T03:05:49.003Z,79.50
2022-12-03T03:08:17.016Z,79.28
2022-12-03T03:10:44.723Z,78.69
2022-12-03T03:13:13.605Z,79.55
2022-12-03T03:15:42.052Z,79.45
2022-12-03T03:18:10.166Z,79.83
2022-12-03T03:20:38.158Z,79.40
2022-12-03T03:23:12.232Z,78.65
2022-12-03T03:25:41.844Z,78.71
2022-12-03T03:28:09.581Z,78.25
2022-12-03T03:30:38.947Z,78.69
2022-12-03T03:33:06.425Z,78.67
2022-12-03T03:35:33.693Z,78.97
2022-12-03T03:38:01.012Z,79.39
2022-12-03T03:40:28.682Z,79.10
2022-12-03T03:42:56.296Z,79.18
2022-12-03T03:45:28.762Z,79.57
2022-12-03T03:47:59.164Z,79.32
2022-12-03T03:50:28.535Z,79.66
2022-12-03T03:52:56.991Z,79.09
2022-12-03T03:55:24.587Z,79.34
2022-12-03T03:57:51.911Z,79.41
2022-12-03T04:00:19.507Z,79.69
2022-12-03T04:02:46.982Z,79.73
2022-12-03T04:05:20.635Z,78.87
2022-12-03T04:07:48.069Z,79.18
2022-12-03T04:10:36.103Z,79.51
2022-12-03T04:13:04.074Z,79.29
2022-12-03T04:15:31.491Z,78.75
2022-12-03T04:18:17.621Z,78.95
2022-12-03T04:20:44.922Z,78.50
2022-12-03T04:23:12.222Z,78.41
2022-12-03T04:25:57.840Z,79.46
2022-12-03T04:28:43.977Z,79.29
2022-12-03T04:31:29.598Z,78.97
2022-12-03T04:34:15.756Z,78.33
2022-12-03T04:36:43.005Z,78.86
2022-12-03T04:39:10.310Z,79.41
2022-12-03T04:41:37.604Z,79.75
2022-12-03T04:44:23.714Z,79.05
2022-12-03T04:46:51.009Z,78.80
2022-12-03T04:49:18.282Z,78.66
2022-12-03T04:51:45.583Z,78.65
2022-12-03T04:54:12.853Z,78.80
2022-12-03T04:56:40.229Z,79.46
2022-12-03T04:59:11.383Z,79.65
2022-12-03T05:01:43.183Z,78.31
2022-12-03T05:04:11.273Z,79.00
2022-12-03T05:06:38.599Z,79.17
2022-12-03T05:09:05.911Z,79.67
2022-12-03T05:11:33.214Z,78.79
2022-12-03T05:14:00.616Z,78.65
2022-12-03T05:16:28.119Z,79.15
2022-12-03T05:18:55.379Z,78.52
2022-12-03T05:21:22.982Z,79.32
2022-12-03T05:23:50.806Z,79.11
2022-12-03T05:26:18.257Z,79.42
2022-12-03T05:28:45.598Z,79.70
2022-12-03T05:31:13.025Z,79.70
2022-12-03T05:33:44.247Z,79.80
2022-12-03T05:36:12.102Z,79.39
2022-12-03T05:38:39.367Z,80.23
2022-12-03T05:41:25.435Z,79.73
2022-12-03T05:43:52.694Z,80.17
2022-12-03T05:46:20.131Z,79.92
2022-12-03T05:48:47.530Z,80.05
2022-12-03T05:51:14.936Z,79.93
2022-12-03T05:53:42.264Z,80.52
2022-12-03T05:56:09.621Z,80.62
2022-12-03T05:58:36.869Z,81.05
2022-12-03T06:01:04.233Z,81.16
2022-12-03T06:03:31.699Z,81.33
2022-12-03T06:05:59.443Z,81.43
2022-12-03T06:08:26.698Z,81.57
2022-12-03T06:10:54.085Z,82.24
2022-12-03T06:13:21.383Z,82.08
2022-12-03T06:15:48.770Z,82.02
2022-12-03T06:18:16.108Z,82.11
2022-12-03T06:20:43.461Z,82.29
2022-12-03T06:23:10.835Z,82.59
2022-12-03T06:25:38.102Z,82.40
2022-12-03T06:28:06.074Z,82.26
2022-12-03T06:30:35.176Z,82.81
2022-12-03T06:33:02.557Z,82.82
2022-12-03T06:35:30.076Z,82.10
2022-12-03T06:37:57.532Z,82.02
2022-12-03T06:40:25.066Z,81.94
2022-12-03T06:42:52.566Z,82.03
2022-12-03T06:45:19.864Z,82.56
2022-12-03T06:47:47.145Z,81.94
2022-12-03T06:50:14.445Z,82.30
2022-12-03T06:52:41.780Z,82.78
2022-12-03T06:55:09.623Z,82.17
2022-12-03T06:57:36.991Z,83.01
2022-12-03T07:00:06.078Z,83.29
2022-12-03T07:02:33.527Z,83.69
2022-12-03T07:05:00.905Z,83.07
2022-12-03T07:07:28.254Z,84.37
2022-12-03T07:09:55.827Z,83.41
2022-12-03T07:12:23.104Z,83.29
2022-12-03T07:14:50.436Z,83.56
2022-12-03T07:17:17.788Z,83.62
2022-12-03T07:19:45.086Z,83.95
2022-12-03T07:22:12.329Z,83.61
2022-12-03T07:24:39.671Z,84.07
2022-12-03T07:27:06.961Z,84.39
2022-12-03T07:29:34.294Z,83.75
2022-12-03T07:32:01.562Z,83.90
2022-12-03T07:34:28.847Z,83.83
2022-12-03T07:36:56.158Z,83.91
2022-12-03T07:39:23.450Z,84.13
2022-12-03T07:41:50.754Z,84.21
2022-12-03T07:44:18.039Z,84.19
2022-12-03T07:46:45.358Z,83.83
2022-12-03T07:49:12.726Z,84.12
2022-12-03T07:51:40.160Z,84.55
2022-12-03T07:54:07.609Z,85.11
2022-12-03T07:56:34.933Z,84.60
2022-12-03T07:59:02.283Z,84.30
2022-12-03T08:01:29.632Z,85.00
2022-12-03T08:03:57.009Z,85.05
2022-12-03T08:06:24.347Z,85.46
2022-12-03T08:08:51.613Z,85.25
2022-12-03T08:11:18.973Z,85.46
2022-12-03T08:13:46.292Z,85.19
2022-12-03T08:16:20.822Z,84.80
2022-12-03T08:18:49.642Z,84.65
2022-12-03T08:21:19.390Z,83.85
2022-12-03T08:23:46.965Z,84.25
2022-12-03T08:26:29.692Z,84.36
2022-12-03T08:28:57.382Z,84.81
2022-12-03T08:31:32.803Z,84.52
2022-12-03T08:34:21.785Z,84.62
2022-12-03T08:36:56.780Z,84.62
2022-12-03T08:39:34.104Z,84.36
2022-12-03T08:42:31.938Z,84.20
2022-12-03T08:45:20.593Z,84.29
2022-12-03T08:47:47.898Z,83.97
2022-12-03T08:50:29.858Z,84.66
2022-12-03T08:53:15.606Z,84.43
2022-12-03T08:55:47.811Z,84.66
2022-12-03T08:58:15.010Z,84.28
2022-12-03T09:00:42.790Z,84.55
2022-12-03T09:03:14.933Z,84.68
2022-12-03T09:05:42.199Z,84.28
2022-12-03T09:08:09.553Z,84.62
2022-12-03T09:10:36.934Z,84.61
2022-12-03T09:13:04.218Z,84.86
2022-12-03T09:15:31.531Z,86.37
2022-12-03T09:17:58.878Z,85.51
2022-12-03T09:20:26.126Z,85.55
2022-12-03T09:22:53.411Z,85.64
2022-12-03T09:25:20.699Z,85.71
2022-12-03T09:27:48.179Z,85.96
2022-12-03T09:30:15.697Z,85.89
2022-12-03T09:32:43.212Z,86.15
2022-12-03T09:35:10.515Z,85.77
2022-12-03T09:37:37.835Z,85.95
2022-12-03T09:40:06.012Z,86.26
2022-12-03T09:42:33.667Z,86.77
2022-12-03T09:45:03.380Z,86.39
2022-12-03T09:47:31.270Z,86.20
2022-12-03T09:49:58.823Z,86.47
2022-12-03T09:52:27.737Z,85.90
2022-12-03T09:54:55.563Z,86.34
2022-12-03T09:57:23.180Z,86.04
2022-12-03T09:59:50.598Z,85.50
2022-12-03T10:02:24.248Z,85.58
2022-12-03T10:04:53.284Z,85.09
2022-12-03T10:07:21.007Z,84.95
2022-12-03T10:09:48.354Z,85.25
2022-12-03T10:12:22.636Z,84.79
2022-12-03T10:14:50.019Z,84.47
2022-12-03T10:17:17.502Z,84.56
2022-12-03T10:19:44.973Z,85.24
2022-12-03T10:22:12.454Z,85.38
2022-12-03T10:24:39.912Z,85.62
2022-12-03T10:27:24.890Z,85.49
2022-12-03T10:29:56.910Z,85.18
2022-12-03T10:32:40.435Z,85.39
2022-12-03T10:35:11.424Z,85.49
2022-12-03T10:37:55.595Z,84.59
2022-12-03T10:40:28.420Z,85.08
2022-12-03T10:43:14.088Z,84.98
2022-12-03T10:45:42.643Z,84.53
2022-12-03T10:48:20.385Z,84.69
2022-12-03T10:51:00.512Z,84.68
2022-12-03T10:53:30.354Z,85.15
2022-12-03T10:56:00.133Z,85.68
2022-12-03T10:58:34.452Z,85.77
2022-12-03T11:01:03.494Z,85.84
2022-12-03T11:03:34.885Z,85.15
2022-12-03T11:06:03.374Z,85.51
2022-12-03T11:08:33.822Z,85.68
2022-12-03T11:11:23.047Z,85.40
2022-12-03T11:13:55.185Z,85.68
2022-12-03T11:16:40.555Z,84.83
2022-12-03T11:19:13.516Z,84.34
2022-12-03T11:22:05.357Z,84.79
2022-12-03T11:24:34.759Z,84.75
2022-12-03T11:27:01.981Z,84.45
2022-12-03T11:30:01.818Z,84.73
2022-12-03T11:32:38.017Z,85.03
2022-12-03T11:35:15.030Z,85.09
2022-12-03T11:37:42.608Z,84.96
2022-12-03T11:40:18.586Z,84.57
2022-12-03T11:42:47.387Z,84.46
2022-12-03T11:45:30.754Z,84.57
2022-12-03T11:47:58.043Z,84.87
2022-12-03T11:50:57.469Z,84.50
2022-12-03T11:53:31.065Z,84.91
2022-12-03T11:56:08.892Z,84.32
2022-12-03T11:58:39.018Z,84.47
2022-12-03T12:01:07.942Z,85.02
2022-12-03T12:03:55.614Z,84.70
2022-12-03T12:06:23.044Z,84.65
2022-12-03T12:08:59.819Z,84.81
2022-12-03T12:11:35.151Z,84.52
2022-12-03T12:14:04.663Z,84.41
2022-12-03T12:16:50.778Z,83.98
2022-12-03T12:19:43.113Z,83.52
2022-12-03T12:22:23.045Z,83.64
2022-12-03T12:25:25.183Z,83.67
2022-12-03T12:27:53.827Z,83.67
2022-12-03T12:30:22.492Z,84.13
2022-12-03T12:33:12.240Z,84.13
2022-12-03T12:35:40.783Z,83.94
2022-12-03T12:38:08.655Z,83.76
2022-12-03T12:40:37.535Z,84.43
2022-12-03T12:43:15.265Z,83.82
2022-12-03T12:45:45.334Z,83.79
2022-12-03T12:48:26.141Z,83.89
2022-12-03T12:51:02.837Z,83.20
2022-12-03T12:53:37.481Z,83.88
2022-12-03T12:56:13.365Z,84.29
2022-12-03T12:58:40.735Z,84.61
2022-12-03T13:01:16.063Z,84.59
2022-12-03T13:03:43.400Z,84.43
2022-12-03T13:06:11.501Z,83.92
2022-12-03T13:08:40.894Z,84.38
2022-12-03T13:11:41.254Z,84.89
2022-12-03T13:14:25.563Z,84.77
2022-12-03T13:16:55.129Z,85.06
2022-12-03T13:19:25.130Z,84.75
2022-12-03T13:21:54.569Z,85.13
2022-12-03T13:24:37.587Z,84.69
2022-12-03T13:27:16.993Z,84.56
2022-12-03T13:29:47.995Z,84.45
2022-12-03T13:32:30.732Z,84.98
2022-12-03T13:35:24.028Z,85.18
2022-12-03T13:37:51.388Z,85.27
2022-12-03T13:40:27.701Z,85.23
2022-12-03T13:42:55.094Z,84.79
2022-12-03T13:45:24.675Z,84.91
2022-12-03T13:48:00.677Z,85.26
2022-12-03T13:50:44.424Z,85.35
2022-12-03T13:53:11.746Z,85.64
2022-12-03T13:55:45.643Z,85.33
2022-12-03T13:58:12.969Z,85.13
2022-12-03T14:00:40.325Z,85.61
2022-12-03T14:03:07.788Z,86.01
2022-12-03T14:05:35.060Z,85.94
2022-12-03T14:08:02.517Z,86.76
2022-12-03T14:10:29.928Z,86.85
2022-12-03T14:12:57.515Z,86.97
2022-12-03T14:15:27.799Z,86.48
2022-12-03T14:17:55.255Z,86.04
2022-12-03T14:20:22.550Z,86.19
2022-12-03T14:22:49.822Z,85.76
2022-12-03T14:25:17.596Z,85.71
2022-12-03T14:27:44.870Z,85.91
2022-12-03T14:30:12.558Z,86.17
2022-12-03T14:32:39.847Z,85.89
2022-12-03T14:35:10.132Z,86.00
2022-12-03T14:37:37.675Z,86.13
2022-12-03T14:40:06.996Z,86.06
2022-12-03T14:42:34.623Z,86.47
2022-12-03T14:45:02.023Z,86.34
2022-12-03T14:47:29.257Z,86.44
2022-12-03T14:49:57.117Z,85.88
2022-12-03T14:52:24.515Z,85.91
2022-12-03T14:54:51.803Z,86.17
2022-12-03T14:57:19.154Z,86.49
2022-12-03T14:59:47.082Z,86.18
2022-12-03T15:02:14.518Z,86.39
2022-12-03T15:04:41.911Z,86.47
2022-12-03T15:07:09.431Z,86.33
2022-12-03T15:09:36.730Z,86.81
2022-12-03T15:12:04.585Z,87.13
2022-12-03T15:14:31.862Z,87.11
2022-12-03T15:16:59.308Z,87.39
2022-12-03T15:19:26.751Z,87.48
2022-12-03T15:21:54.109Z,88.34
2022-12-03T15:24:21.511Z,88.06
2022-12-03T15:26:49.544Z,88.31
2022-12-03T15:29:16.823Z,88.44
2022-12-03T15:31:44.588Z,88.43
2022-12-03T15:34:12.793Z,88.68
2022-12-03T15:36:42.260Z,87.93
2022-12-03T15:39:09.755Z,87.88
2022-12-03T15:41:37.022Z,87.51
2022-12-03T15:44:04.701Z,87.33
2022-12-03T15:46:32.021Z,87.88
2022-12-03T15:49:00.304Z,87.45
2022-12-03T15:51:27.654Z,87.57
2022-12-03T15:53:54.944Z,87.90
2022-12-03T15:56:22.420Z,87.54
2022-12-03T15:58:49.814Z,87.44
2022-12-03T16:01:18.309Z,87.17
2022-12-03T16:03:46.334Z,87.39
2022-12-03T16:06:14.683Z,87.23
2022-12-03T16:08:42.092Z,88.07
2022-12-03T16:11:09.765Z,88.01
2022-12-03T16:13:37.095Z,88.20
2022-12-03T16:16:04.619Z,88.33
2022-12-03T16:18:32.270Z,88.27
2022-12-03T16:20:59.882Z,87.94
2022-12-03T16:23:27.440Z,87.63
2022-12-03T16:25:55.497Z,87.97
2022-12-03T16:28:23.055Z,87.67
2022-12-03T16:30:51.047Z,87.49
2022-12-03T16:33:24.045Z,87.61
2022-12-03T16:35:54.772Z,86.50
2022-12-03T16:38:22.258Z,86.68
2022-12-03T16:40:49.617Z,86.99
2022-12-03T16:43:16.963Z,86.48
2022-12-03T16:45:56.077Z,86.34
2022-12-03T16:48:23.422Z,86.42
2022-12-03T16:50:50.727Z,86.70
2022-12-03T16:53:18.078Z,87.14
2022-12-03T16:55:45.349Z,87.32
2022-12-03T16:58:12.636Z,87.08
2022-12-03T17:00:39.899Z,86.83
2022-12-03T17:03:07.274Z,86.91
2022-12-03T17:05:34.628Z,87.95
2022-12-03T17:08:01.937Z,87.65
2022-12-03T17:10:29.411Z,87.73
2022-12-03T17:13:12.198Z,87.39
2022-12-03T17:15:40.205Z,87.17
2022-12-03T17:18:08.131Z,87.30
2022-12-03T17:20:36.063Z,87.41
2022-12-03T17:23:03.593Z,87.48
2022-12-03T17:25:31.018Z,87.35
2022-12-03T17:27:58.381Z,87.83
2022-12-03T17:30:25.814Z,87.03
2022-12-03T17:32:53.108Z,86.92
2022-12-03T17:35:20.443Z,87.44
2022-12-03T17:37:47.777Z,88.26
2022-12-03T17:40:16.889Z,87.98
2022-12-03T17:42:44.303Z,87.62
2022-12-03T17:45:12.524Z,87.79
2022-12-03T17:47:39.810Z,87.14
2022-12-03T17:50:07.859Z,87.23
2022-12-03T17:52:35.176Z,87.06
2022-12-03T17:55:11.883Z,87.04
2022-12-03T17:57:41.657Z,86.56
2022-12-03T18:00:09.585Z,87.13
2022-12-03T18:02:36.968Z,87.35
2022-12-03T18:05:04.362Z,87.14
2022-12-03T18:07:31.833Z,86.64
2022-12-03T18:09:59.218Z,86.45
2022-12-03T18:12:26.580Z,86.81
2022-12-03T18:14:53.802Z,87.13
2022-12-03T18:17:21.125Z,86.89
2022-12-03T18:19:48.563Z,87.00
2022-12-03T18:22:16.127Z,87.00
2022-12-03T18:24:46.119Z,86.63
2022-12-03T18:27:14.789Z,86.15
2022-12-03T18:29:42.189Z,86.88
2022-12-03T18:32:27.173Z,86.88
2022-12-03T18:34:55.684Z,87.03
2022-12-03T18:37:28.629Z,87.19
2022-12-03T18:39:56.675Z,86.59
2022-12-03T18:42:24.714Z,86.40
2022-12-03T18:44:54.117Z,86.40
2022-12-03T18:47:23.830Z,86.24
2022-12-03T18:49:51.265Z,86.56
2022-12-03T18:52:20.970Z,86.96
2022-12-03T18:54:48.497Z,86.69
2022-12-03T18:57:16.172Z,87.19
2022-12-03T18:59:43.622Z,86.57
2022-12-03T19:02:38.493Z,87.11
2022-12-03T19:05:04.005Z,86.83
2022-12-03T19:07:31.325Z,86.90
2022-12-03T19:09:58.754Z,86.88
2022-12-03T19:12:26.029Z,87.15
2022-12-03T19:14:53.367Z,87.57
2022-12-03T19:17:21.624Z,87.80
2022-12-03T19:19:48.970Z,87.57
2022-12-03T19:22:16.313Z,87.43
2022-12-03T19:24:43.804Z,87.07
2022-12-03T19:27:11.154Z,87.89
2022-12-03T19:29:38.551Z,87.56
2022-12-03T19:32:05.971Z,88.17
2022-12-03T19:34:33.459Z,87.94
2022-12-03T19:37:00.750Z,87.70
2022-12-03T19:39:28.059Z,87.64
2022-12-03T19:41:55.525Z,87.49
2022-12-03T19:44:22.885Z,87.37
2022-12-03T19:46:50.858Z,87.74
2022-12-03T19:49:20.863Z,88.00
2022-12-03T19:51:48.662Z,87.63
2022-12-03T19:54:16.556Z,87.46
2022-12-03T19:56:44.237Z,87.65
2022-12-03T19:59:12.520Z,87.53
2022-12-03T20:01:42.783Z,87.89
2022-12-03T20:04:11.562Z,87.94
2022-12-03T20:06:39.158Z,87.67
2022-12-03T20:09:17.121Z,87.30
2022-12-03T20:11:45.801Z,87.47
2022-12-03T20:14:15.608Z,87.84
2022-12-03T20:16:44.457Z,88.06
2022-12-03T20:19:14.729Z,87.77
2022-12-03T20:21:43.002Z,87.38
2022-12-03T20:24:14.193Z,87.25
2022-12-03T20:26:41.580Z,87.50
2022-12-03T20:29:08.857Z,87.56
2022-12-03T20:31:36.334Z,87.33
2022-12-03T20:34:03.970Z,87.35
2022-12-03T20:36:32.089Z,86.99
2022-12-03T20:39:01.830Z,87.13
2022-12-03T20:41:29.344Z,86.42
2022-12-03T20:43:57.015Z,86.48
2022-12-03T20:46:26.732Z,87.04
2022-12-03T20:48:55.109Z,87.27
2022-12-03T20:51:26.161Z,87.81
2022-12-03T20:53:53.910Z,87.71
2022-12-03T20:56:23.947Z,87.58
2022-12-03T20:58:51.328Z,88.04
2022-12-03T21:01:24.806Z,87.54
2022-12-03T21:03:54.116Z,87.55
2022-12-03T21:06:22.334Z,87.31
2022-12-03T21:08:50.117Z,87.27
2022-12-03T21:11:19.942Z,87.56
2022-12-03T21:13:47.716Z,87.69
2022-12-03T21:16:17.611Z,87.33
2022-12-03T21:18:45.293Z,87.37
2022-12-03T21:21:14.233Z,87.34
2022-12-03T21:23:42.104Z,87.14
2022-12-03T21:26:29.621Z,87.11
2022-12-03T21:28:56.967Z,87.19
2022-12-03T21:31:26.317Z,87.69
2022-12-03T21:33:54.652Z,87.77
2022-12-03T21:36:22.866Z,87.99
2022-12-03T21:38:50.147Z,88.56
2022-12-03T21:41:17.819Z,88.70
2022-12-03T21:43:45.231Z,89.07
2022-12-03T21:47:10.837Z,88.76
2022-12-03T21:49:04.619Z,89.38
2022-12-03T21:51:31.940Z,89.07
2022-12-03T21:53:59.209Z,89.36
2022-12-03T21:56:26.577Z,89.20
2022-12-03T21:58:54.743Z,88.87
2022-12-03T22:01:23.849Z,88.53
2022-12-03T22:03:51.403Z,88.02
2022-12-03T22:06:19.379Z,87.67
2022-12-03T22:08:47.226Z,87.59
2022-12-03T22:11:18.961Z,87.86
2022-12-03T22:13:46.521Z,88.78
2022-12-03T22:16:16.407Z,88.75
2022-12-03T22:18:44.206Z,88.99
2022-12-03T22:21:19.559Z,89.29
2022-12-03T22:23:46.990Z,89.17
2022-12-03T22:26:16.521Z,88.88
2022-12-03T22:28:45.242Z,88.46
2022-12-03T22:31:12.820Z,88.46
2022-12-03T22:33:40.355Z,88.51
2022-12-03T22:36:16.213Z,88.18
2022-12-03T22:38:47.619Z,87.91
2022-12-03T22:41:15.706Z,87.98
2022-12-03T22:43:43.349Z,87.85
2022-12-03T22:46:14.545Z,87.99
2022-12-03T22:48:43.093Z,88.43
2022-12-03T22:51:19.130Z,88.85
2022-12-03T22:53:46.763Z,88.84
2022-12-03T22:56:14.305Z,89.11
2022-12-03T22:58:41.740Z,89.22
2022-12-03T23:01:23.926Z,88.78
2022-12-03T23:03:51.606Z,88.14
2022-12-03T23:06:19.183Z,88.29
2022-12-03T23:08:46.695Z,88.02
2022-12-03T23:11:14.517Z,88.42
2022-12-03T23:13:42.243Z,88.51
2022-12-03T23:16:30.357Z,89.05
2022-12-03T23:18:59.556Z,89.35
2022-12-03T23:21:30.181Z,89.11
2022-12-03T23:23:59.075Z,89.90
2022-12-03T23:26:26.530Z,89.41
2022-12-03T23:28:53.865Z,89.29
2022-12-03T23:31:26.545Z,88.75
2022-12-03T23:33:54.375Z,89.10
2022-12-03T23:36:22.326Z,88.95
2022-12-03T23:38:49.743Z,88.88
2022-12-03T23:41:19.919Z,88.86
2022-12-03T23:43:47.702Z,89.38
2022-12-03T23:46:17.715Z,89.40
2022-12-03T23:48:45.571Z,89.34
2022-12-03T23:51:18.025Z,89.15
2022-12-03T23:53:45.919Z,89.45
2022-12-03T23:56:17.060Z,89.21
2022-12-03T23:58:44.773Z,88.76
